createdAt,value
2022-09-04T00:00:56.651Z,4.15
2022-09-04T00:03:39.535Z,3.50
2022-09-04T00:06:10.229Z,3.95
2022-09-04T00:08:53.022Z,3.75
2022-09-04T00:11:31.115Z,4.82
2022-09-04T00:14:09.834Z,3.58
2022-09-04T00:16:47.405Z,4.50
2022-09-04T00:19:24.165Z,4.53
2022-09-04T00:21:53.891Z,4.82
2022-09-04T00:24:26.273Z,5.13
2022-09-04T00:26:59.491Z,4.63
2022-09-04T00:29:33.243Z,4.35
2022-09-04T00:32:06.745Z,4.40
2022-09-04T00:34:39.858Z,4.38
2022-09-04T00:37:09.436Z,5.05
2022-09-04T00:39:36.837Z,6.22
2022-09-04T00:42:10.274Z,5.60
2022-09-04T00:44:40.729Z,5.88
2022-09-04T00:47:14.704Z,5.50
2022-09-04T00:50:07.079Z,5.75
2022-09-04T00:52:58.296Z,7.28
2022-09-04T00:55:26.026Z,7.03
2022-09-04T00:58:22.588Z,6.57
2022-09-04T01:00:50.356Z,7.03
2022-09-04T01:03:36.047Z,6.97
2022-09-04T01:06:09.443Z,6.95
2022-09-04T01:08:56.396Z,7.15
2022-09-04T01:11:32.048Z,7.15
2022-09-04T01:14:00.773Z,7.10
2022-09-04T01:16:30.538Z,7.07
2022-09-04T01:19:05.725Z,7.13
2022-09-04T01:21:33.268Z,6.57
2022-09-04T01:24:19.856Z,6.03
2022-09-04T01:27:00.110Z,6.35
2022-09-04T01:29:45.311Z,8.05
2022-09-04T01:32:29.912Z,6.88
2022-09-04T01:34:59.658Z,6.60
2022-09-04T01:37:48.780Z,7.65
2022-09-04T01:40:20.683Z,8.50
2022-09-04T01:42:50.994Z,7.70
2022-09-04T01:45:24.772Z,8.05
2022-09-04T01:47:56.508Z,8.20
2022-09-04T01:55:56.488Z,7.15
2022-09-04T01:58:42.566Z,7.85
2022-09-04T02:01:10.959Z,6.70
2022-09-04T02:03:41.066Z,8.40
2022-09-04T02:06:27.817Z,8.43
2022-09-04T02:09:01.015Z,8.70
2022-09-04T02:11:32.001Z,7.65
2022-09-04T02:14:15.110Z,7.85
2022-09-04T02:17:01.144Z,8.10
2022-09-04T02:19:41.385Z,7.47
2022-09-04T02:22:24.020Z,7.53
2022-09-04T02:25:00.426Z,7.43
2022-09-04T02:27:40.019Z,6.97
2022-09-04T02:30:10.357Z,6.95
2022-09-04T02:32:40.797Z,7.00
2022-09-04T02:35:16.013Z,7.13
2022-09-04T02:38:01.480Z,7.00
2022-09-04T02:40:34.843Z,7.03
2022-09-04T02:43:02.249Z,7.45
2022-09-04T02:45:35.238Z,7.70
2022-09-04T02:48:14.354Z,5.60
2022-09-04T02:50:46.157Z,4.20
2022-09-04T02:56:08.430Z,4.35
2022-09-04T02:58:51.171Z,6.72
2022-09-04T03:01:29.394Z,6.40
2022-09-04T03:03:59.504Z,4.97
2022-09-04T03:06:50.181Z,4.15
2022-09-04T03:09:22.093Z,4.25
2022-09-04T03:11:53.273Z,4.15
2022-09-04T03:14:20.750Z,4.28
2022-09-04T03:17:20.568Z,5.90
2022-09-04T03:19:52.034Z,6.72
2022-09-04T03:22:27.748Z,6.30
2022-09-04T03:24:57.890Z,6.10
2022-09-04T03:27:28.740Z,6.80
2022-09-04T03:30:03.858Z,6.80
2022-09-04T03:32:43.549Z,6.43
2022-09-04T03:35:21.012Z,6.50
2022-09-04T03:37:56.114Z,6.18
2022-09-04T03:40:30.141Z,6.47
2022-09-04T03:43:11.227Z,6.55
2022-09-04T03:45:45.250Z,6.28
2022-09-04T03:48:15.698Z,6.35
2022-09-04T03:51:01.952Z,6.88
2022-09-04T03:53:33.269Z,6.45
2022-09-04T03:56:19.289Z,6.93
2022-09-04T03:58:46.601Z,6.63
2022-09-04T04:01:32.850Z,6.70
2022-09-04T04:04:15.786Z,6.63
2022-09-04T04:06:49.141Z,7.10
2022-09-04T04:09:25.725Z,7.38
2022-09-04T04:12:13.154Z,7.63
2022-09-04T04:14:43.376Z,7.15
2022-09-04T04:17:15.672Z,9.52
2022-09-04T04:20:02.933Z,9.20
2022-09-04T04:22:48.828Z,8.95
2022-09-04T04:25:25.283Z,9.00
2022-09-04T04:28:12.515Z,8.90
2022-09-04T04:30:49.438Z,9.80
2022-09-04T04:33:19.588Z,8.55
2022-09-04T04:35:56.125Z,7.80
2022-09-04T04:38:24.722Z,8.60
2022-09-04T04:41:10.605Z,8.35
2022-09-04T04:43:52.134Z,8.18
2022-09-04T04:46:38.202Z,8.07
2022-09-04T04:49:29.735Z,8.00
2022-09-04T04:52:16.767Z,7.97
2022-09-04T04:54:51.428Z,8.20
2022-09-04T04:57:32.544Z,7.60
2022-09-04T05:00:06.131Z,8.63
2022-09-04T05:02:38.447Z,7.70
2022-09-04T05:05:19.185Z,7.28
2022-09-04T05:07:55.901Z,7.38
2022-09-04T05:10:32.487Z,6.47
2022-09-04T05:13:20.757Z,7.30
2022-09-04T05:16:09.432Z,6.75
2022-09-04T05:19:12.686Z,7.55
2022-09-04T05:21:42.718Z,6.47
2022-09-04T05:24:18.890Z,6.40
2022-09-04T05:26:58.172Z,5.85
2022-09-04T05:29:35.289Z,6.22
2022-09-04T05:32:11.264Z,5.75
2022-09-04T05:35:02.700Z,6.18
2022-09-04T05:40:01.047Z,6.47
2022-09-04T05:42:45.386Z,5.88
2022-09-04T05:45:21.635Z,6.60
2022-09-04T05:47:58.046Z,6.45
2022-09-04T05:50:28.493Z,5.70
2022-09-04T05:53:11.324Z,6.05
2022-09-04T05:56:00.089Z,5.60
2022-09-04T05:58:35.994Z,6.40
2022-09-04T06:01:29.370Z,6.50
2022-09-04T06:04:15.504Z,6.30
2022-09-04T06:07:03.081Z,6.50
2022-09-04T06:09:36.488Z,5.93
2022-09-04T06:12:16.168Z,5.82
2022-09-04T06:15:04.995Z,6.30
2022-09-04T06:17:51.190Z,6.90
2022-09-04T06:20:36.824Z,6.30
2022-09-04T06:23:16.587Z,7.30
2022-09-04T06:25:47.015Z,7.35
2022-09-04T06:28:14.335Z,6.72
2022-09-04T06:31:00.643Z,6.25
2022-09-04T06:33:36.782Z,5.35
2022-09-04T06:36:33.808Z,5.70
2022-09-04T06:39:10.016Z,5.00
2022-09-04T06:41:52.599Z,5.05
2022-09-04T06:44:26.029Z,6.07
2022-09-04T06:46:53.358Z,6.30
2022-09-04T06:49:40.933Z,5.30
2022-09-04T06:52:22.646Z,5.60
2022-09-04T06:54:59.565Z,5.03
2022-09-04T06:57:48.151Z,4.93
2022-09-04T07:00:16.392Z,5.40
2022-09-04T07:02:46.918Z,5.30
2022-09-04T07:05:24.590Z,5.60
2022-09-04T07:08:07.236Z,5.20
2022-09-04T07:10:36.901Z,5.55
2022-09-04T07:13:21.222Z,5.78
2022-09-04T07:15:53.267Z,4.80
2022-09-04T07:18:42.172Z,5.28
2022-09-04T07:21:15.921Z,6.45
2022-09-04T07:24:02.565Z,5.22
2022-09-04T07:26:38.722Z,5.35
2022-09-04T07:29:16.108Z,5.50
2022-09-04T07:31:49.199Z,5.30
2022-09-04T07:34:24.979Z,5.28
2022-09-04T07:37:01.495Z,6.72
2022-09-04T07:39:28.882Z,6.40
2022-09-04T07:41:59.739Z,6.93
2022-09-04T07:44:42.287Z,8.17
2022-09-04T07:47:18.359Z,7.38
2022-09-04T07:50:04.477Z,7.80
2022-09-04T07:52:31.820Z,7.95
2022-09-04T07:54:59.133Z,8.43
2022-09-04T07:57:26.517Z,7.07
2022-09-04T08:00:03.164Z,7.30
2022-09-04T08:02:48.299Z,8.10
2022-09-04T08:05:23.989Z,7.50
2022-09-04T08:08:04.578Z,7.38
2022-09-04T08:10:39.466Z,7.70
2022-09-04T08:13:18.244Z,7.20
2022-09-04T08:16:05.898Z,6.88
2022-09-04T08:18:41.998Z,6.63
2022-09-04T08:21:23.705Z,6.22
2022-09-04T08:24:06.128Z,6.05
2022-09-04T08:26:42.688Z,6.00
2022-09-04T08:29:13.508Z,6.05
2022-09-04T08:31:41.190Z,5.50
2022-09-04T08:34:31.493Z,6.82
2022-09-04T08:37:09.530Z,6.18
2022-09-04T08:39:37.052Z,6.18
2022-09-04T08:42:13.394Z,5.85
2022-09-04T08:45:04.033Z,6.00
2022-09-04T08:47:44.938Z,6.32
2022-09-04T08:50:23.784Z,5.80
2022-09-04T08:52:54.005Z,6.05
2022-09-04T08:55:22.109Z,5.65
2022-09-04T08:58:21.596Z,6.25
2022-09-04T09:00:55.595Z,6.03
2022-09-04T09:03:41.505Z,6.05
2022-09-04T09:06:27.472Z,5.10
2022-09-04T09:09:33.461Z,5.43
2022-09-04T09:12:19.491Z,5.93
2022-09-04T09:14:58.814Z,5.60
2022-09-04T09:17:39.494Z,5.50
2022-09-04T09:20:25.037Z,5.75
2022-09-04T09:23:16.008Z,4.93
2022-09-04T09:26:06.168Z,5.10
2022-09-04T09:28:52.044Z,5.95
2022-09-04T09:31:28.784Z,5.10
2022-09-04T09:34:14.493Z,5.30
2022-09-04T09:36:44.356Z,5.10
2022-09-04T09:39:30.785Z,4.40
2022-09-04T09:42:00.910Z,4.80
2022-09-04T09:44:39.758Z,5.25
2022-09-04T09:47:08.363Z,4.57
2022-09-04T09:49:42.001Z,4.80
2022-09-04T09:52:29.792Z,4.63
2022-09-04T09:55:09.158Z,4.32
2022-09-04T09:57:45.702Z,4.30
2022-09-04T10:00:17.767Z,4.40
2022-09-04T10:03:00.862Z,4.47
2022-09-04T10:05:46.952Z,3.80
2022-09-04T10:08:19.195Z,4.28
2022-09-04T10:11:10.774Z,3.78
2022-09-04T10:14:05.707Z,3.78
2022-09-04T10:16:52.494Z,3.78
2022-09-04T10:19:26.638Z,4.20
2022-09-04T10:22:14.715Z,3.78
2022-09-04T10:24:48.135Z,3.58
2022-09-04T10:27:27.965Z,4.15
2022-09-04T10:30:07.694Z,3.75
2022-09-04T10:32:41.648Z,3.15
2022-09-04T10:35:15.196Z,3.08
2022-09-04T10:38:01.294Z,3.50
2022-09-04T10:40:43.923Z,3.22
2022-09-04T10:43:31.173Z,3.25
2022-09-04T10:46:09.658Z,2.85
2022-09-04T10:48:47.634Z,2.70
2022-09-04T10:51:34.542Z,2.90
2022-09-04T10:54:20.874Z,2.80
2022-09-04T10:56:57.601Z,2.80
2022-09-04T10:59:37.216Z,3.13
2022-09-04T11:02:23.123Z,3.05
2022-09-04T11:05:09.287Z,2.78
2022-09-04T11:07:42.818Z,2.72
2022-09-04T11:10:13.277Z,2.95
2022-09-04T11:12:48.987Z,2.93
2022-09-04T11:15:25.483Z,2.80
2022-09-04T11:17:58.978Z,2.63
2022-09-04T11:20:45.296Z,2.85
2022-09-04T11:23:31.449Z,5.30
2022-09-04T11:26:07.752Z,2.90
2022-09-04T11:28:57.074Z,2.50
2022-09-04T11:31:46.919Z,2.42
2022-09-04T11:34:33.196Z,2.47
2022-09-04T11:37:03.512Z,2.25
2022-09-04T11:39:43.223Z,2.20
2022-09-04T11:42:29.475Z,2.70
2022-09-04T11:45:15.420Z,2.35
2022-09-04T11:47:56.700Z,2.70
2022-09-04T11:50:35.427Z,2.55
2022-09-04T11:53:21.634Z,2.40
2022-09-04T11:55:52.624Z,2.47
2022-09-04T11:58:39.084Z,2.20
2022-09-04T12:01:25.203Z,2.50
2022-09-04T12:04:11.482Z,2.17
2022-09-04T12:07:08.962Z,1.92
2022-09-04T12:09:36.283Z,2.40
2022-09-04T12:12:11.057Z,2.22
2022-09-04T12:14:49.853Z,2.17
2022-09-04T12:17:36.324Z,1.90
2022-09-04T12:20:24.026Z,1.67
2022-09-04T12:23:10.921Z,2.03
2022-09-04T12:25:38.357Z,2.13
2022-09-04T12:28:26.654Z,1.70
2022-09-04T12:31:00.101Z,1.70
2022-09-04T12:33:37.211Z,1.63
2022-09-04T12:36:17.389Z,1.83
2022-09-04T12:39:03.815Z,1.58
2022-09-04T12:41:46.800Z,1.60
2022-09-04T12:44:19.296Z,1.83
2022-09-04T12:46:50.295Z,1.70
2022-09-04T12:49:33.011Z,1.88
2022-09-04T12:52:02.875Z,1.67
2022-09-04T12:54:33.366Z,1.73
2022-09-04T12:57:19.556Z,1.90
2022-09-04T13:00:13.185Z,1.80
2022-09-04T13:02:49.717Z,1.52
2022-09-04T13:05:27.389Z,1.67
2022-09-04T13:08:19.388Z,1.48
2022-09-04T13:11:13.434Z,1.67
2022-09-04T13:13:43.775Z,1.40
2022-09-04T13:16:29.526Z,1.50
2022-09-04T13:19:15.876Z,1.40
2022-09-04T13:21:54.913Z,1.50
2022-09-04T13:24:45.149Z,1.20
2022-09-04T13:27:34.172Z,1.42
2022-09-04T13:30:07.837Z,1.42
2022-09-04T13:32:35.350Z,1.50
2022-09-04T13:35:15.998Z,1.40
2022-09-04T13:37:53.301Z,1.30
2022-09-04T13:40:39.226Z,1.70
2022-09-04T13:43:18.753Z,1.60
2022-09-04T13:45:50.495Z,1.35
2022-09-04T13:48:23.141Z,1.48
2022-09-04T13:50:55.740Z,1.40
2022-09-04T13:53:41.084Z,1.40
2022-09-04T13:56:11.376Z,1.25
2022-09-04T13:58:47.718Z,1.45
2022-09-04T14:01:17.062Z,1.52
2022-09-04T14:03:44.485Z,1.35
2022-09-04T14:06:14.914Z,1.23
2022-09-04T14:08:43.722Z,1.45
2022-09-04T14:11:44.445Z,1.50
2022-09-04T14:14:13.034Z,1.40
2022-09-04T14:16:41.646Z,1.40
2022-09-04T14:19:17.277Z,1.50
2022-09-04T14:21:55.234Z,1.30
2022-09-04T14:24:22.540Z,1.35
2022-09-04T14:26:58.485Z,1.60
2022-09-04T14:29:47.179Z,1.30
2022-09-04T14:32:28.257Z,1.50
2022-09-04T14:35:02.735Z,1.45
2022-09-04T14:37:30.202Z,1.23
2022-09-04T14:40:04.045Z,1.35
2022-09-04T14:42:42.563Z,1.48
2022-09-04T14:45:22.120Z,1.20
2022-09-04T14:47:55.190Z,1.48
2022-09-04T14:50:25.752Z,1.50
2022-09-04T14:52:55.804Z,1.30
2022-09-04T14:55:30.401Z,1.30
2022-09-04T14:57:59.270Z,1.48
2022-09-04T15:00:29.603Z,1.25
2022-09-04T15:02:56.914Z,1.27
2022-09-04T15:05:59.862Z,1.40
2022-09-04T15:08:28.555Z,4.03
2022-09-04T15:11:02.149Z,3.35
2022-09-04T15:13:31.174Z,1.45
2022-09-04T15:16:02.257Z,1.52
2022-09-04T15:18:50.479Z,1.58
2022-09-04T15:21:21.126Z,1.60
2022-09-04T15:24:02.564Z,1.60
2022-09-04T15:26:36.358Z,1.60
2022-09-04T15:29:11.414Z,1.20
2022-09-04T15:31:42.129Z,1.50
2022-09-04T15:34:19.012Z,1.60
2022-09-04T15:36:46.752Z,1.52
2022-09-04T15:39:34.382Z,1.45
2022-09-04T15:42:01.856Z,1.50
2022-09-04T15:44:35.001Z,1.30
2022-09-04T15:47:23.141Z,1.27
2022-09-04T15:49:53.820Z,1.50
2022-09-04T15:52:42.362Z,1.65
2022-09-04T15:55:12.474Z,1.58
2022-09-04T15:57:48.971Z,1.60
2022-09-04T16:00:17.539Z,1.50
2022-09-04T16:02:54.595Z,1.30
2022-09-04T16:05:41.401Z,1.70
2022-09-04T16:08:21.040Z,1.50
2022-09-04T16:10:57.326Z,1.50
2022-09-04T16:13:28.110Z,1.38
2022-09-04T16:16:22.866Z,1.70
2022-09-04T16:19:15.740Z,1.50
2022-09-04T16:21:53.389Z,1.48
2022-09-04T16:24:25.965Z,1.52
2022-09-04T16:26:54.757Z,1.38
2022-09-04T16:29:36.665Z,1.40
2022-09-04T16:32:10.757Z,1.75
2022-09-04T16:34:43.957Z,3.80
2022-09-04T16:37:32.082Z,8.55
2022-09-04T16:39:59.571Z,22.63
2022-09-04T16:42:26.948Z,31.13
2022-09-04T16:45:13.544Z,19.88
2022-09-04T16:47:40.920Z,13.98
2022-09-04T16:50:23.524Z,11.20
2022-09-04T16:53:13.503Z,14.40
2022-09-04T16:55:44.724Z,8.52
2022-09-04T16:58:12.199Z,5.70
2022-09-04T17:01:14.428Z,4.13
2022-09-04T17:03:45.757Z,4.18
2022-09-04T17:06:21.480Z,4.90
2022-09-04T17:08:52.632Z,4.10
2022-09-04T17:11:39.781Z,4.30
2022-09-04T17:14:16.721Z,4.15
2022-09-04T17:16:57.726Z,3.63
2022-09-04T17:19:25.626Z,3.28
2022-09-04T17:27:34.433Z,3.10
2022-09-04T17:29:05.206Z,3.20
2022-09-04T17:29:09.938Z,3.00
2022-09-04T17:31:02.289Z,2.80
2022-09-04T17:36:47.914Z,2.50
2022-09-04T17:40:41.350Z,2.33
2022-09-04T17:41:34.533Z,2.42
2022-09-04T17:42:20.469Z,2.03
2022-09-04T17:44:53.681Z,2.50
2022-09-04T17:47:34.824Z,2.25
2022-09-04T17:50:02.845Z,2.42
2022-09-04T17:52:34.493Z,2.20
2022-09-04T17:55:07.966Z,2.08
2022-09-04T17:57:54.131Z,2.33
2022-09-04T18:00:33.099Z,2.28
2022-09-04T18:03:07.502Z,2.28
2022-09-04T18:05:53.256Z,2.00
2022-09-04T18:08:32.652Z,1.88
2022-09-04T18:11:03.060Z,2.30
2022-09-04T18:13:52.107Z,2.10
2022-09-04T18:16:31.792Z,2.03
2022-09-04T18:19:13.268Z,1.90
2022-09-04T18:22:15.746Z,1.88
2022-09-04T18:24:52.072Z,1.90
2022-09-04T18:27:24.273Z,1.90
2022-09-04T18:36:17.335Z,2.13
2022-09-04T18:37:18.898Z,2.03
2022-09-04T18:37:20.596Z,1.98
2022-09-04T18:39:08.880Z,2.65
2022-09-04T18:48:36.183Z,2.40
2022-09-04T18:50:48.708Z,2.20
2022-09-04T18:50:52.510Z,2.40
2022-09-04T18:51:06.946Z,2.70
2022-09-04T18:53:20.938Z,2.67
2022-09-04T18:55:56.274Z,2.60
2022-09-04T18:58:23.956Z,2.63
2022-09-04T19:00:54.543Z,2.20
2022-09-04T19:03:48.473Z,2.40
2022-09-04T19:06:18.508Z,2.50
2022-09-04T19:08:48.136Z,2.10
2022-09-04T19:11:21.661Z,2.40
2022-09-04T19:14:10.246Z,2.25
2022-09-04T19:16:49.000Z,2.10
2022-09-04T19:19:29.768Z,2.40
2022-09-04T19:21:59.349Z,2.50
2022-09-04T19:24:49.675Z,2.28
2022-09-04T19:27:27.622Z,2.50
2022-09-04T19:29:55.522Z,2.58
2022-09-04T19:32:57.802Z,2.60
2022-09-04T19:35:36.044Z,2.70
2022-09-04T19:42:18.338Z,2.40
2022-09-04T19:46:01.097Z,2.30
2022-09-04T19:46:05.352Z,2.00
2022-09-04T19:46:43.064Z,2.40
2022-09-04T19:50:57.085Z,2.42
2022-09-04T19:53:32.364Z,2.50
2022-09-04T19:55:24.545Z,2.22
2022-09-04T19:58:14.622Z,2.20
2022-09-04T20:00:50.827Z,1.90
2022-09-04T20:03:29.271Z,2.45
2022-09-04T20:06:20.978Z,2.03
2022-09-04T20:11:36.518Z,2.00
2022-09-04T20:14:13.534Z,2.30
2022-09-04T20:17:11.380Z,1.90
2022-09-04T20:19:44.991Z,2.40
2022-09-04T20:22:31.853Z,2.05
2022-09-04T20:25:09.039Z,2.10
2022-09-04T20:27:42.416Z,2.15
2022-09-04T20:30:12.848Z,2.42
2022-09-04T20:32:43.223Z,2.80
2022-09-04T20:35:16.311Z,2.53
2022-09-04T20:37:48.701Z,2.40
2022-09-04T20:40:22.112Z,2.30
2022-09-04T20:43:03.879Z,2.72
2022-09-04T20:50:27.179Z,2.53
2022-09-04T20:52:44.971Z,2.28
2022-09-04T20:52:51.144Z,2.45
2022-09-04T20:54:12.362Z,2.50
2022-09-04T21:00:16.837Z,2.67
2022-09-04T21:03:07.690Z,2.50
2022-09-04T21:03:20.092Z,2.40
2022-09-04T21:06:06.089Z,2.60
2022-09-04T21:08:40.831Z,3.00
2022-09-04T21:11:39.077Z,2.47
2022-09-04T21:14:05.198Z,2.80
2022-09-04T21:16:38.969Z,2.70
2022-09-04T21:19:28.892Z,2.35
2022-09-04T21:22:33.202Z,2.63
2022-09-04T21:25:30.794Z,2.90
2022-09-04T21:28:04.283Z,2.38
2022-09-04T21:30:37.652Z,2.50
2022-09-04T21:33:33.324Z,3.00
2022-09-04T21:36:26.357Z,2.72
2022-09-04T21:39:13.573Z,2.90
2022-09-04T21:41:59.363Z,2.90
2022-09-04T21:44:38.448Z,2.50
2022-09-04T21:47:16.863Z,2.30
2022-09-04T21:49:55.583Z,2.35
2022-09-04T21:52:55.817Z,2.78
2022-09-04T22:00:06.110Z,2.67
2022-09-04T22:02:29.530Z,2.42
2022-09-04T22:02:38.114Z,2.90
2022-09-04T22:04:29.126Z,3.00
2022-09-04T22:11:41.908Z,2.83
2022-09-04T22:13:31.819Z,2.65
2022-09-04T22:13:38.858Z,2.70
2022-09-04T22:15:58.475Z,2.90
2022-09-04T22:18:25.839Z,3.05
2022-09-04T22:20:54.635Z,3.10
2022-09-04T22:23:28.001Z,3.15
2022-09-04T22:26:23.062Z,2.70
2022-09-04T22:29:07.326Z,2.60
2022-09-04T22:32:05.430Z,2.78
2022-09-04T22:34:53.740Z,2.90
2022-09-04T22:37:39.579Z,2.50
2022-09-04T22:40:26.274Z,2.78
2022-09-04T22:43:08.931Z,2.90
2022-09-04T22:45:36.271Z,2.80
2022-09-04T22:48:22.414Z,2.88
2022-09-04T22:50:50.857Z,2.80
2022-09-04T22:53:27.050Z,2.90
2022-09-04T22:56:13.673Z,2.97
2022-09-04T22:58:47.193Z,2.67
2022-09-04T23:01:17.327Z,2.63
2022-09-04T23:03:58.364Z,2.47
2022-09-04T23:10:17.144Z,2.70
2022-09-04T23:13:46.679Z,2.83
2022-09-04T23:13:56.780Z,2.92
2022-09-04T23:15:32.640Z,3.10
2022-09-04T23:19:50.180Z,2.80
2022-09-04T23:26:34.640Z,2.90
2022-09-04T23:26:42.226Z,3.15
2022-09-04T23:27:11.183Z,2.90
2022-09-04T23:29:51.313Z,2.85
2022-09-04T23:32:37.673Z,3.00
2022-09-04T23:35:14.948Z,3.20
2022-09-04T23:38:00.287Z,2.95
2022-09-04T23:40:34.973Z,3.13
2022-09-04T23:43:20.635Z,3.05
2022-09-04T23:45:56.567Z,2.80
2022-09-04T23:48:46.897Z,3.03
2022-09-04T23:51:39.424Z,3.30
2022-09-04T23:54:25.803Z,3.03
2022-09-04T23:57:25.825Z,3.30
